Mound, TX (76558)

5:12 AM CDT on April 27, 2015 (GMT -0500)
GATESVILLE, TX (12 Miles SE) | | Change Station
CLOSE
Current Station
Personal Weather Station
Location: Leon Junction, TX
Elevation: 760 ft
Nearby Weather Stations

Elev 760 ft 31.34 °N, 97.57 °W | Updated 41 seconds ago

Clear
Clear
62.1 °F
Feels Like 62.1 °F
N
0.0
Wind Variable Wind from NNW
Gusts 2.0 mph

Today
High -- | Low -- °F
--% Chance of Precip.
Yesterday
High -- | Low -- °F
Precip. -- in
6:49 AM 8:06 PM
Waxing Gibbous, 63% visible
Pressure 29.59 in
Visibility 10.0 miles
Clouds Few 15000 ft
Dew Point 59 °F
Humidity 90%
Rainfall 0.46 in
Snow Depth Not available.
UV 0 out of 12
Pollen 8.70 out of 12
Air Quality Not available.
Flu Activity Local Activity
METAR KHLR 270958Z AUTO 05005KT 10SM FEW150 17/16 A2962 RMK AO2 LTG DSNT NW-N SLP020 T01660159

More Conditions Fewer Conditions

Pressure 29.59 in
Visibility 10.0 miles
Clouds Few 15000 ft
Dew Point 59 °F
Humidity 90%
Rainfall 0.46 in
Snow Depth Not available.
UV 0 out of 12
Pollen 8.70 out of 12
Air Quality Not available.
Flu Activity Local Activity
METAR KHLR 270958Z AUTO 05005KT 10SM FEW150 17/16 A2962 RMK AO2 LTG DSNT NW-N SLP020 T01660159

More Conditions Fewer Conditions

10-Day Weather Forecast

Almanac

Astronomy

Apr. 27, 2015 Rise Set
Actual Time
Civil Twilight
Nautical Twilight
Astronomical Twilight
Moon
Length of Visible Light
Length of Day
Tomorrow will be .
, % of the Moon is Illuminated

Today's Extremes

State Highs State Lows

Community

WunderPhotos

Upload Photos

1,817,278 photos uploaded!

WunderBlogs® & News

Nearby

Air Quality

  Air Quality AQ Index Pollutant
Not available.

Snow Depth

Station Depth Elevation

Earthquake Activity

City Distance Mag. Time & Date
Minimum magnitude displayed is 2.5.

Coastal Water Temperatures

Place Temperature

Stations

Nearby Weather Stations

Station Location Temp. Windchill Dew Point Humidity Wind Precip. Elev Updated Type